createdAt,value
2022-10-15T00:01:34.635Z,100031.06
2022-10-15T00:06:34.520Z,100034.16
2022-10-15T00:09:01.882Z,100026.28
2022-10-15T00:11:30.264Z,100032.22
2022-10-15T00:14:00.375Z,100032.22
2022-10-15T00:16:29.664Z,100034.03
2022-10-15T00:18:59.602Z,100037.47
2022-10-15T00:21:27.513Z,100036.53
2022-10-15T00:23:55.569Z,100040.94
2022-10-15T00:26:29.143Z,100045.97
2022-10-15T00:29:02.530Z,100051.09
2022-10-15T00:31:32.650Z,100064.53
2022-10-15T00:34:02.714Z,100068.19
2022-10-15T00:36:34.632Z,100064.84
2022-10-15T00:39:04.694Z,100059.66
2022-10-15T00:41:42.251Z,100053.59
2022-10-15T00:44:22.455Z,100045.66
2022-10-15T00:47:13.186Z,100047.41
2022-10-15T00:49:54.977Z,100051.81
2022-10-15T00:52:57.592Z,100042.59
2022-10-15T00:55:33.177Z,100045.16
2022-10-15T00:58:09.405Z,100046.81
2022-10-15T01:00:37.347Z,100041.50
2022-10-15T01:03:05.061Z,100040.47
2022-10-15T01:05:34.932Z,100039.69
2022-10-15T01:08:02.092Z,100039.78
2022-10-15T01:11:14.292Z,100034.41
2022-10-15T01:13:58.857Z,100035.25
2022-10-15T01:16:46.800Z,100029.22
2022-10-15T01:19:47.609Z,100036.41
2022-10-15T01:22:52.990Z,100030.31
2022-10-15T01:26:25.329Z,100023.41
2022-10-15T01:29:31.547Z,100029.41
2022-10-15T01:32:06.718Z,100030.31
2022-10-15T01:34:53.031Z,100033.00
2022-10-15T01:37:53.058Z,100028.78
2022-10-15T01:40:52.072Z,100035.03
2022-10-15T01:43:56.012Z,100032.47
2022-10-15T01:47:00.744Z,100024.66
2022-10-15T01:49:35.017Z,100025.56
2022-10-15T01:52:22.438Z,100019.56
2022-10-15T01:54:52.924Z,100014.31
2022-10-15T01:57:24.405Z,100008.38
2022-10-15T01:59:52.551Z,100003.06
2022-10-15T02:02:21.417Z,99998.09
2022-10-15T02:04:48.866Z,99997.97
2022-10-15T02:08:05.376Z,99997.81
2022-10-15T02:11:03.858Z,99994.44
2022-10-15T02:13:52.493Z,99993.66
2022-10-15T02:16:43.434Z,99993.59
2022-10-15T02:19:40.162Z,99990.28
2022-10-15T02:22:19.236Z,99986.06
2022-10-15T02:25:05.928Z,99984.47
2022-10-15T02:27:35.482Z,99980.13
2022-10-15T02:30:09.710Z,99973.84
2022-10-15T02:32:39.897Z,99977.25
2022-10-15T02:35:10.152Z,99972.94
2022-10-15T02:37:48.812Z,99974.06
2022-10-15T02:40:27.739Z,99969.03
2022-10-15T02:42:55.532Z,99966.56
2022-10-15T02:45:23.069Z,99957.03
2022-10-15T02:47:50.268Z,99963.38
2022-10-15T02:50:19.599Z,99959.19
2022-10-15T02:52:46.868Z,99957.03
2022-10-15T02:55:14.226Z,99953.59
2022-10-15T02:57:42.140Z,99948.56
2022-10-15T03:00:10.665Z,99940.63
2022-10-15T03:02:39.124Z,99945.78
2022-10-15T03:05:07.638Z,99939.50
2022-10-15T03:07:34.781Z,99946.41
2022-10-15T03:10:02.309Z,99940.34
2022-10-15T03:12:29.909Z,99948.34
2022-10-15T03:14:58.156Z,99946.59
2022-10-15T03:17:26.109Z,99961.50
2022-10-15T03:19:53.640Z,99957.16
2022-10-15T03:22:22.357Z,99965.09
2022-10-15T03:24:53.224Z,99970.41
2022-10-15T03:27:25.403Z,99975.63
2022-10-15T03:29:53.387Z,99968.59
2022-10-15T03:32:22.507Z,99965.06
2022-10-15T03:34:49.841Z,99965.06
2022-10-15T03:37:19.239Z,99969.50
2022-10-15T03:39:46.579Z,99965.91
2022-10-15T03:42:15.179Z,99966.00
2022-10-15T03:44:45.870Z,99965.09
2022-10-15T03:47:16.795Z,99965.91
2022-10-15T03:49:48.709Z,99955.50
2022-10-15T03:52:16.416Z,99959.97
2022-10-15T03:54:45.616Z,99968.06
2022-10-15T03:57:15.324Z,99959.41
2022-10-15T03:59:46.532Z,99962.13
2022-10-15T04:02:15.008Z,99948.09
2022-10-15T04:04:42.441Z,99943.56
2022-10-15T04:07:09.793Z,99937.50
2022-10-15T04:09:37.574Z,99934.03
2022-10-15T04:12:22.092Z,99933.97
2022-10-15T04:14:49.890Z,99941.91
2022-10-15T04:17:18.053Z,99939.28
2022-10-15T04:19:45.959Z,99935.84
2022-10-15T04:22:15.144Z,99941.97
2022-10-15T04:24:47.926Z,99937.63
2022-10-15T04:27:25.794Z,99935.16
2022-10-15T04:29:55.732Z,99921.31
2022-10-15T04:32:23.283Z,99920.44
2022-10-15T04:34:50.643Z,99926.53
2022-10-15T04:37:25.543Z,99930.00
2022-10-15T04:39:54.001Z,99938.75
2022-10-15T04:42:22.003Z,99944.81
2022-10-15T04:44:49.231Z,99944.66
2022-10-15T04:47:16.417Z,99952.50
2022-10-15T04:49:52.172Z,99948.25
2022-10-15T04:52:35.348Z,99954.41
2022-10-15T04:55:07.833Z,99945.69
2022-10-15T04:57:38.358Z,99949.16
2022-10-15T05:00:06.938Z,99949.16
2022-10-15T05:02:34.260Z,99941.25
2022-10-15T05:05:20.564Z,99945.78
2022-10-15T05:08:04.590Z,99945.69
2022-10-15T05:10:40.094Z,99949.16
2022-10-15T05:13:08.985Z,99953.41
2022-10-15T05:15:38.475Z,99947.13
2022-10-15T05:18:08.944Z,99955.97
2022-10-15T05:20:44.989Z,99944.72
2022-10-15T05:23:15.848Z,99947.34
2022-10-15T05:25:53.131Z,99944.72
2022-10-15T05:28:23.952Z,99945.69
2022-10-15T05:30:51.332Z,99946.53
2022-10-15T05:33:18.676Z,99951.03
2022-10-15T05:35:45.972Z,99949.25
2022-10-15T05:38:13.178Z,99952.72
2022-10-15T05:40:41.151Z,99958.88
2022-10-15T05:43:16.318Z,99951.25
2022-10-15T05:45:43.568Z,99951.47
2022-10-15T05:48:10.759Z,99945.31
2022-10-15T05:50:38.069Z,99944.31
2022-10-15T05:53:09.272Z,99942.63
2022-10-15T05:55:36.697Z,99941.81
2022-10-15T05:58:05.052Z,99944.66
2022-10-15T06:00:33.068Z,99945.47
2022-10-15T06:03:00.349Z,99944.66
2022-10-15T06:05:27.668Z,99945.53
2022-10-15T06:07:56.588Z,99952.59
2022-10-15T06:10:24.019Z,99953.63
2022-10-15T06:12:51.746Z,99953.78
2022-10-15T06:15:19.743Z,99959.94
2022-10-15T06:17:46.896Z,99960.97
2022-10-15T06:20:14.401Z,99965.38
2022-10-15T06:22:41.604Z,99966.34
2022-10-15T06:25:09.847Z,99974.19
2022-10-15T06:27:37.224Z,99965.28
2022-10-15T06:30:05.720Z,99975.75
2022-10-15T06:32:32.962Z,99977.38
2022-10-15T06:35:00.279Z,99974.78
2022-10-15T06:37:29.916Z,99981.81
2022-10-15T06:39:59.158Z,99983.47
2022-10-15T06:42:26.280Z,99995.78
2022-10-15T06:44:55.837Z,99997.47
2022-10-15T06:47:23.280Z,99999.25
2022-10-15T06:49:50.741Z,100001.03
2022-10-15T06:52:17.978Z,100009.09
2022-10-15T06:54:45.126Z,100006.56
2022-10-15T06:57:14.295Z,100005.06
2022-10-15T06:59:41.783Z,99995.50
2022-10-15T07:02:14.114Z,100000.00
2022-10-15T07:04:41.298Z,100007.09
2022-10-15T07:07:08.496Z,100007.25
2022-10-15T07:09:36.690Z,100004.78
2022-10-15T07:12:05.253Z,100004.03
2022-10-15T07:14:32.649Z,99999.94
2022-10-15T07:17:00.051Z,99998.47
2022-10-15T07:19:29.132Z,99998.91
2022-10-15T07:21:56.925Z,100004.19
2022-10-15T07:24:24.129Z,100006.72
2022-10-15T07:26:51.332Z,100005.25
2022-10-15T07:29:18.461Z,100017.66
2022-10-15T07:31:46.898Z,100027.25
2022-10-15T07:34:16.957Z,100035.19
2022-10-15T07:36:44.095Z,100039.69
2022-10-15T07:39:11.764Z,100048.31
2022-10-15T07:41:39.036Z,100049.06
2022-10-15T07:44:06.563Z,100055.28
2022-10-15T07:46:33.913Z,100051.69
2022-10-15T07:49:01.274Z,100057.78
2022-10-15T07:51:28.519Z,100057.81
2022-10-15T07:53:56.271Z,100057.22
2022-10-15T07:56:23.522Z,100051.59
2022-10-15T07:58:53.631Z,100050.66
2022-10-15T08:01:21.911Z,100050.19
2022-10-15T08:03:49.208Z,100045.22
2022-10-15T08:06:16.987Z,100042.00
2022-10-15T08:08:44.273Z,100044.97
2022-10-15T08:11:15.715Z,100036.59
2022-10-15T08:13:44.618Z,100028.22
2022-10-15T08:16:15.215Z,100024.50
2022-10-15T08:18:44.790Z,100024.19
2022-10-15T08:21:12.938Z,100024.94
2022-10-15T08:23:41.152Z,100026.88
2022-10-15T08:26:08.578Z,100025.19
2022-10-15T08:28:36.553Z,100025.19
2022-10-15T08:31:05.968Z,100027.94
2022-10-15T08:33:36.768Z,100034.91
2022-10-15T08:36:08.297Z,100035.84
2022-10-15T08:38:35.771Z,100040.19
2022-10-15T08:41:11.509Z,100044.38
2022-10-15T08:43:42.209Z,100039.69
2022-10-15T08:46:36.859Z,100034.78
2022-10-15T08:49:07.407Z,100047.16
2022-10-15T08:51:53.473Z,100034.13
2022-10-15T08:54:21.093Z,100041.06
2022-10-15T08:57:05.950Z,100037.06
2022-10-15T08:59:55.785Z,100040.94
2022-10-15T09:02:55.240Z,100043.06
2022-10-15T09:06:02.454Z,100040.13
2022-10-15T09:08:50.705Z,100036.41
2022-10-15T09:12:04.693Z,100041.97
2022-10-15T09:14:38.286Z,100045.97
2022-10-15T09:17:20.544Z,100044.34
2022-10-15T09:19:54.743Z,100045.66
2022-10-15T09:22:32.200Z,100046.91
2022-10-15T09:24:59.578Z,100052.50
2022-10-15T09:27:38.153Z,100054.31
2022-10-15T09:30:43.611Z,100044.72
2022-10-15T09:33:50.623Z,100053.53
2022-10-15T09:36:38.901Z,100047.94
2022-10-15T09:40:22.616Z,100034.22
2022-10-15T09:42:52.611Z,100047.94
2022-10-15T09:45:20.589Z,100046.50
2022-10-15T09:47:47.849Z,100048.59
2022-10-15T09:50:15.850Z,100044.56
2022-10-15T09:54:04.337Z,100045.63
2022-10-15T09:56:49.924Z,100042.19
2022-10-15T09:59:20.778Z,100041.25
2022-10-15T10:02:19.879Z,100041.94
2022-10-15T10:04:47.296Z,100042.09
2022-10-15T10:07:38.487Z,100037.44
2022-10-15T10:10:29.449Z,100041.81
2022-10-15T10:12:57.268Z,100057.25
2022-10-15T10:15:43.533Z,100049.69
2022-10-15T10:18:23.903Z,100039.81
2022-10-15T10:21:29.067Z,100046.44
2022-10-15T10:24:17.247Z,100042.31
2022-10-15T10:26:47.286Z,100047.34
2022-10-15T10:29:33.402Z,100057.31
2022-10-15T10:32:26.990Z,100041.72
2022-10-15T10:34:55.149Z,100050.03
2022-10-15T10:37:23.191Z,100043.91
2022-10-15T10:40:01.073Z,100048.25
2022-10-15T10:42:34.779Z,100051.00
2022-10-15T10:45:23.798Z,100042.44
2022-10-15T10:47:51.364Z,100038.50
2022-10-15T10:50:37.711Z,100032.50
2022-10-15T10:53:24.272Z,100044.31
2022-10-15T10:55:55.784Z,100047.28
2022-10-15T10:58:29.534Z,100040.00
2022-10-15T11:00:58.004Z,100037.19
2022-10-15T11:03:45.623Z,100040.78
2022-10-15T11:06:51.166Z,100039.03
2022-10-15T11:10:12.017Z,100039.66
2022-10-15T11:13:04.088Z,100030.56
2022-10-15T11:16:13.537Z,100026.97
2022-10-15T11:18:54.029Z,100035.34
2022-10-15T11:22:11.628Z,100024.97
2022-10-15T11:25:22.817Z,100029.66
2022-10-15T11:28:51.671Z,100026.69
2022-10-15T11:32:14.659Z,100019.59
2022-10-15T11:35:53.011Z,100013.19
2022-10-15T11:39:00.619Z,100015.69
2022-10-15T11:41:47.164Z,100015.81
2022-10-15T11:44:36.610Z,100007.88
2022-10-15T11:47:44.431Z,100003.69
2022-10-15T11:50:29.693Z,100005.66
2022-10-15T11:53:37.457Z,100001.47
2022-10-15T11:56:21.130Z,99992.28
2022-10-15T11:59:04.672Z,99995.19
2022-10-15T12:01:48.659Z,99991.56
2022-10-15T12:04:43.599Z,99992.59
2022-10-15T12:07:23.766Z,99988.28
2022-10-15T12:10:06.292Z,99993.59
2022-10-15T12:13:16.825Z,99983.97
2022-10-15T12:16:34.308Z,99979.41
2022-10-15T12:19:25.346Z,99972.63
2022-10-15T12:21:56.911Z,99965.66
2022-10-15T12:24:44.387Z,99965.81
2022-10-15T12:27:24.689Z,99964.88
2022-10-15T12:30:19.201Z,99960.38
2022-10-15T12:32:48.589Z,99957.69
2022-10-15T12:35:15.809Z,99960.50
2022-10-15T12:37:46.683Z,99951.88
2022-10-15T12:40:28.331Z,99946.63
2022-10-15T12:43:17.805Z,99942.19
2022-10-15T12:46:14.392Z,99942.84
2022-10-15T12:48:47.188Z,99933.84
2022-10-15T12:51:23.045Z,99939.44
2022-10-15T12:53:54.529Z,99936.91
2022-10-15T12:56:25.332Z,99929.88
2022-10-15T12:58:56.752Z,99932.59
2022-10-15T13:01:23.860Z,99923.72
2022-10-15T13:03:51.217Z,99928.09
2022-10-15T13:06:21.154Z,99927.06
2022-10-15T13:09:11.766Z,99926.13
2022-10-15T13:11:54.799Z,99924.41
2022-10-15T13:14:38.755Z,99910.31
2022-10-15T13:17:20.557Z,99912.13
2022-10-15T13:20:07.831Z,99907.75
2022-10-15T13:22:37.266Z,99913.13
2022-10-15T13:25:16.028Z,99903.34
2022-10-15T13:27:43.701Z,99905.06
2022-10-15T13:30:18.268Z,99903.28
2022-10-15T13:32:53.813Z,99905.97
2022-10-15T13:35:34.608Z,99905.13
2022-10-15T13:38:04.778Z,99911.38
2022-10-15T13:40:32.836Z,99897.97
2022-10-15T13:43:21.805Z,99903.31
2022-10-15T13:45:56.498Z,99905.97
2022-10-15T13:48:31.796Z,99911.38
2022-10-15T13:51:03.410Z,99908.56
2022-10-15T13:53:40.588Z,99905.88
2022-10-15T13:56:31.969Z,99903.19
2022-10-15T13:59:03.821Z,99895.28
2022-10-15T14:01:34.811Z,99891.69
2022-10-15T14:04:03.671Z,99892.72
2022-10-15T14:06:41.709Z,99894.47
2022-10-15T14:09:31.916Z,99898.91
2022-10-15T14:12:03.218Z,99896.19
2022-10-15T14:14:49.353Z,99890.03
2022-10-15T14:17:19.395Z,99885.56
2022-10-15T14:20:22.068Z,99886.47
2022-10-15T14:22:49.447Z,99891.81
2022-10-15T14:25:25.170Z,99890.03
2022-10-15T14:27:53.104Z,99885.53
2022-10-15T14:30:34.146Z,99887.34
2022-10-15T14:33:01.409Z,99898.00
2022-10-15T14:35:36.391Z,99887.31
2022-10-15T14:38:10.555Z,99878.47
2022-10-15T14:40:37.937Z,99892.66
2022-10-15T14:43:07.408Z,99884.69
2022-10-15T14:45:58.295Z,99880.81
2022-10-15T14:48:28.740Z,99881.78
2022-10-15T14:51:03.648Z,99874.63
2022-10-15T14:53:44.950Z,99873.63
2022-10-15T14:56:23.255Z,99875.53
2022-10-15T14:58:56.766Z,99869.28
2022-10-15T15:01:27.464Z,99869.31
2022-10-15T15:03:57.081Z,99876.16
2022-10-15T15:06:24.650Z,99872.44
2022-10-15T15:08:51.992Z,99881.84
2022-10-15T15:11:24.416Z,99871.63
2022-10-15T15:13:52.451Z,99884.09
2022-10-15T15:16:20.014Z,99884.38
2022-10-15T15:18:48.699Z,99886.72
2022-10-15T15:21:23.610Z,99878.97
2022-10-15T15:23:51.235Z,99887.53
2022-10-15T15:26:18.640Z,99880.84
2022-10-15T15:28:45.867Z,99886.75
2022-10-15T15:31:19.075Z,99883.44
2022-10-15T15:33:46.485Z,99888.44
2022-10-15T15:36:20.868Z,99892.09
2022-10-15T15:38:51.653Z,99892.31
2022-10-15T15:41:23.869Z,99898.38
2022-10-15T15:43:53.402Z,99894.88
2022-10-15T15:46:20.789Z,99893.19
2022-10-15T15:48:48.138Z,99898.56
2022-10-15T15:51:27.792Z,99904.09
2022-10-15T15:53:55.889Z,99905.09
2022-10-15T15:56:23.785Z,99906.03
2022-10-15T15:58:51.777Z,99908.69
2022-10-15T16:01:20.403Z,99911.34
2022-10-15T16:03:47.701Z,99913.00
2022-10-15T16:06:15.046Z,99922.75
2022-10-15T16:08:42.280Z,99925.25
2022-10-15T16:11:09.712Z,99929.44
2022-10-15T16:13:37.859Z,99933.63
2022-10-15T16:16:05.823Z,99929.84
2022-10-15T16:18:33.025Z,99934.94
2022-10-15T16:21:00.287Z,99932.94
2022-10-15T16:23:27.581Z,99934.59
2022-10-15T16:25:57.382Z,99951.19
2022-10-15T16:28:24.715Z,99951.06
2022-10-15T16:30:51.958Z,99952.81
2022-10-15T16:33:19.087Z,99964.09
2022-10-15T16:35:53.428Z,99963.03
2022-10-15T16:38:20.664Z,99976.91
2022-10-15T16:40:47.839Z,99974.00
2022-10-15T16:43:14.987Z,99973.69
2022-10-15T16:45:42.255Z,99978.72
2022-10-15T16:48:09.460Z,99986.47
2022-10-15T16:50:36.768Z,99994.19
2022-10-15T16:53:04.111Z,99990.44
2022-10-15T16:55:32.322Z,99992.81
2022-10-15T16:57:59.547Z,100002.38
2022-10-15T17:00:26.800Z,100006.72
2022-10-15T17:02:55.059Z,100013.56
2022-10-15T17:05:22.286Z,100014.34
2022-10-15T17:07:49.489Z,100019.50
2022-10-15T17:10:16.742Z,100020.16
2022-10-15T17:12:43.924Z,100022.69
2022-10-15T17:15:11.313Z,100028.78
2022-10-15T17:17:38.596Z,100037.56
2022-10-15T17:20:06.772Z,100047.06
2022-10-15T17:22:34.901Z,100046.94
2022-10-15T17:25:02.071Z,100044.16
2022-10-15T17:27:29.416Z,100055.44
2022-10-15T17:29:56.708Z,100058.75
2022-10-15T17:32:25.594Z,100056.69
2022-10-15T17:34:53.110Z,100060.84
2022-10-15T17:37:20.403Z,100058.91
2022-10-15T17:39:47.788Z,100063.22
2022-10-15T17:42:15.998Z,100061.34
2022-10-15T17:44:43.152Z,100073.63
2022-10-15T17:47:10.426Z,100065.50
2022-10-15T17:49:37.643Z,100072.38
2022-10-15T17:52:05.808Z,100072.22
2022-10-15T17:54:32.998Z,100081.75
2022-10-15T17:57:00.251Z,100080.00
2022-10-15T17:59:27.649Z,100089.75
2022-10-15T18:01:59.570Z,100087.19
2022-10-15T18:04:29.648Z,100085.34
2022-10-15T18:06:57.325Z,100097.59
2022-10-15T18:09:28.138Z,100101.09
2022-10-15T18:11:57.807Z,100098.50
2022-10-15T18:14:30.007Z,100106.53
2022-10-15T18:16:58.111Z,100102.97
2022-10-15T18:19:26.597Z,100103.88
2022-10-15T18:21:55.398Z,100108.41
2022-10-15T18:24:24.085Z,100116.50
2022-10-15T18:26:52.249Z,100114.94
2022-10-15T18:29:20.099Z,100117.78
2022-10-15T18:31:47.574Z,100125.00
2022-10-15T18:34:15.028Z,100123.31
2022-10-15T18:36:43.533Z,100119.56
2022-10-15T18:39:11.699Z,100121.16
2022-10-15T18:41:40.845Z,100124.63
2022-10-15T18:44:20.720Z,100129.88
2022-10-15T18:46:47.907Z,100128.19
2022-10-15T18:49:18.465Z,100127.28
2022-10-15T18:51:46.544Z,100125.50
2022-10-15T18:54:14.007Z,100129.00
2022-10-15T18:56:41.531Z,100121.03
2022-10-15T18:59:08.690Z,100130.81
2022-10-15T19:01:44.054Z,100123.72
2022-10-15T19:04:14.789Z,100120.09
2022-10-15T19:06:50.046Z,100125.19
2022-10-15T19:09:22.224Z,100122.38
2022-10-15T19:11:53.352Z,100133.97
2022-10-15T19:14:22.215Z,100128.69
2022-10-15T19:16:49.993Z,100129.38
2022-10-15T19:19:21.524Z,100132.78
2022-10-15T19:21:50.876Z,100133.56
2022-10-15T19:24:20.416Z,100144.84
2022-10-15T19:26:48.746Z,100143.81
2022-10-15T19:29:16.385Z,100147.97
2022-10-15T19:31:49.105Z,100151.78
2022-10-15T19:34:16.610Z,100156.38
2022-10-15T19:36:47.795Z,100155.50
2022-10-15T19:39:21.676Z,100157.28
2022-10-15T19:41:51.977Z,100161.56
2022-10-15T19:44:24.950Z,100165.84
2022-10-15T19:46:53.819Z,100169.09
2022-10-15T19:49:21.851Z,100165.41
2022-10-15T19:51:50.523Z,100173.19
2022-10-15T19:54:18.047Z,100172.13
2022-10-15T19:56:45.900Z,100182.69
2022-10-15T19:59:13.766Z,100187.47
2022-10-15T20:01:41.116Z,100182.25
2022-10-15T20:04:08.395Z,100181.50
2022-10-15T20:06:40.860Z,100182.53
2022-10-15T20:09:08.945Z,100190.59
2022-10-15T20:11:37.793Z,100189.78
2022-10-15T20:14:05.576Z,100193.19
2022-10-15T20:16:33.662Z,100200.13
2022-10-15T20:19:06.883Z,100202.59
2022-10-15T20:21:34.389Z,100194.66
2022-10-15T20:24:04.951Z,100204.16
2022-10-15T20:26:33.023Z,100203.41
2022-10-15T20:29:00.539Z,100208.81
2022-10-15T20:31:32.217Z,100208.94
2022-10-15T20:34:00.864Z,100217.81
2022-10-15T20:36:28.570Z,100217.84
2022-10-15T20:38:57.451Z,100226.66
2022-10-15T20:41:24.777Z,100239.00
2022-10-15T20:43:55.139Z,100231.94
2022-10-15T20:46:41.229Z,100244.28
2022-10-15T20:49:15.598Z,100246.03
2022-10-15T20:51:44.574Z,100245.19
2022-10-15T20:54:13.338Z,100246.09
2022-10-15T20:56:41.373Z,100250.56
2022-10-15T20:59:08.746Z,100249.69
2022-10-15T21:01:36.497Z,100251.50
2022-10-15T21:04:05.307Z,100255.94
2022-10-15T21:06:33.206Z,100255.94
2022-10-15T21:09:00.795Z,100259.38
2022-10-15T21:11:27.933Z,100269.91
2022-10-15T21:13:55.461Z,100272.53
2022-10-15T21:16:25.887Z,100274.28
2022-10-15T21:18:55.723Z,100275.03
2022-10-15T21:21:23.255Z,100281.19
2022-10-15T21:23:50.456Z,100282.91
2022-10-15T21:26:19.122Z,100288.16
2022-10-15T21:28:46.846Z,100291.69
2022-10-15T21:31:17.380Z,100295.97
2022-10-15T21:33:46.010Z,100299.63
2022-10-15T21:36:21.789Z,100308.34
2022-10-15T21:38:54.275Z,100303.06
2022-10-15T21:41:26.184Z,100310.25
2022-10-15T21:43:53.846Z,100320.13
2022-10-15T21:46:21.416Z,100311.38
2022-10-15T21:48:49.348Z,100312.25
2022-10-15T21:51:20.915Z,100317.53
2022-10-15T21:53:48.244Z,100308.75
2022-10-15T21:56:16.893Z,100318.44
2022-10-15T21:58:44.657Z,100313.16
2022-10-15T22:01:28.873Z,100314.13
2022-10-15T22:04:05.977Z,100317.63
2022-10-15T22:06:35.084Z,100323.72
2022-10-15T22:09:04.389Z,100322.91
2022-10-15T22:11:36.321Z,100328.09
2022-10-15T22:14:08.673Z,100329.88
2022-10-15T22:16:38.755Z,100329.78
2022-10-15T22:19:09.126Z,100328.78
2022-10-15T22:21:38.627Z,100334.97
2022-10-15T22:24:20.668Z,100342.88
2022-10-15T22:26:53.838Z,100337.59
2022-10-15T22:29:34.533Z,100349.00
2022-10-15T22:32:02.668Z,100344.53
2022-10-15T22:34:30.162Z,100349.00
2022-10-15T22:36:57.281Z,100353.47
2022-10-15T22:39:24.863Z,100355.97
2022-10-15T22:41:52.079Z,100353.16
2022-10-15T22:44:21.554Z,100354.06
2022-10-15T22:46:50.012Z,100362.97
2022-10-15T22:49:22.040Z,100355.97
2022-10-15T22:51:50.898Z,100359.56
2022-10-15T22:54:21.810Z,100355.16
2022-10-15T22:56:51.082Z,100356.88
2022-10-15T22:59:19.125Z,100349.81
2022-10-15T23:01:46.422Z,100355.97
2022-10-15T23:04:16.379Z,100359.53
2022-10-15T23:06:43.880Z,100357.75
2022-10-15T23:09:18.226Z,100361.25
2022-10-15T23:11:46.517Z,100357.69
2022-10-15T23:14:16.491Z,100364.75
2022-10-15T23:16:47.660Z,100355.88
2022-10-15T23:19:22.348Z,100355.88
2022-10-15T23:21:57.003Z,100357.69
2022-10-15T23:24:26.951Z,100359.44
2022-10-15T23:26:54.261Z,100358.38
2022-10-15T23:29:25.305Z,100366.25
2022-10-15T23:31:54.068Z,100367.06
2022-10-15T23:34:25.875Z,100362.63
2022-10-15T23:36:54.129Z,100368.75
2022-10-15T23:39:26.799Z,100367.81
2022-10-15T23:41:55.254Z,100371.34
2022-10-15T23:44:25.532Z,100374.69
2022-10-15T23:46:53.062Z,100371.19
2022-10-15T23:49:20.390Z,100367.63
2022-10-15T23:51:47.549Z,100365.91
2022-10-15T23:54:18.148Z,100364.13
2022-10-15T23:56:47.330Z,100372.91
2022-10-15T23:59:16.548Z,100374.63
